Time;durP1;ratioP1;P1;durP2;ratioP2;P2;SDS_P1;SDS_P2;PMS_P1;PMS_P2;Temp;Humidity;BMP_temperature;BMP_pressure;BME280_temperature;BME280_humidity;BME280_pressure;Samples;Min_cycle;Max_cycle;Signal;HPM_P1;HPM_P2
2022/04/22 00:02:04;;;;;;;;;10.33;9.33;;;;;16.78;42.21;99638.72;4859260;29;45948;-84
2022/04/22 00:04:30;;;;;;;;;12.00;9.67;;;;;16.72;42.05;99633.53;4859103;29;45202;-82
2022/04/22 00:10:17;;;;;;;;;7.00;6.00;;;;;16.70;41.99;99638.06;4875051;29;45476;-84
2022/04/22 00:12:46;;;;;;;;;8.33;6.67;;;;;16.60;42.69;99619.56;4873939;29;44784;-84
2022/04/22 00:15:28;;;;;;;;;8.00;8.00;;;;;16.60;42.87;99630.28;4859335;29;45884;-83
2022/04/22 00:17:54;;;;;;;;;9.00;9.00;;;;;16.62;43.00;99632.03;4860697;29;44835;-83
2022/04/22 00:20:19;;;;;;;;;7.67;7.67;;;;;16.62;42.79;99637.41;4877240;29;45248;-83
2022/04/22 00:22:45;;;;;;;;;6.33;6.00;;;;;16.57;42.89;99630.34;4860615;29;45467;-83
2022/04/22 00:25:13;;;;;;;;;8.67;7.67;;;;;16.60;43.21;99630.28;4859765;29;44962;-82
2022/04/22 00:27:39;;;;;;;;;6.33;5.00;;;;;16.55;43.04;99623.28;4860590;29;45373;-83
2022/04/22 00:30:07;;;;;;;;;9.67;7.00;;;;;16.58;43.17;99637.50;4859924;29;47309;-83
2022/04/22 00:32:35;;;;;;;;;7.33;7.33;;;;;16.51;43.18;99625.16;4874301;29;45412;-84
2022/04/22 00:35:03;;;;;;;;;7.33;6.67;;;;;16.56;43.36;99628.63;4858227;29;44909;-84
2022/04/22 00:37:28;;;;;;;;;6.33;6.33;;;;;16.47;43.57;99618.13;4858089;29;45559;-82
2022/04/22 00:39:54;;;;;;;;;14.67;9.33;;;;;16.42;43.86;99619.16;4875161;29;45411;-82
2022/04/22 00:42:59;;;;;;;;;9.00;6.67;;;;;16.59;43.41;99625.81;4874604;29;45427;-83
2022/04/22 00:45:25;;;;;;;;;8.33;7.33;;;;;16.40;44.43;99624.56;4875697;29;44833;-83
2022/04/22 00:47:57;;;;;;;;;5.67;5.67;;;;;16.37;44.11;99614.81;4858749;29;45423;-82
2022/04/22 00:50:22;;;;;;;;;7.00;7.00;;;;;16.37;44.86;99627.34;4858167;29;46821;-82
2022/04/22 00:52:48;;;;;;;;;11.33;8.33;;;;;16.36;44.06;99628.25;4859781;29;45447;-82
2022/04/22 00:55:14;;;;;;;;;5.33;4.00;;;;;16.31;45.36;99638.25;4875455;29;45582;-83
2022/04/22 00:57:41;;;;;;;;;10.00;8.00;;;;;16.36;44.66;99631.84;4876258;29;45006;-83
2022/04/22 01:00:07;;;;;;;;;11.33;7.67;;;;;16.23;44.67;99622.38;4857096;29;47362;-83
2022/04/22 01:02:32;;;;;;;;;7.00;7.00;;;;;16.23;44.85;99626.84;4856908;29;45517;-83
2022/04/22 01:10:26;;;;;;;;;9.00;6.00;;;;;16.17;44.70;99620.72;4874132;29;45367;-84
2022/04/22 01:12:51;;;;;;;;;6.00;5.00;;;;;16.16;44.84;99618.97;4858338;29;45473;-84
2022/04/22 01:15:17;;;;;;;;;9.33;9.33;;;;;16.10;44.43;99603.03;4858002;29;45550;-84
2022/04/22 01:17:46;;;;;;;;;8.00;8.00;;;;;16.26;44.70;99608.88;4875412;29;45387;-82
2022/04/22 01:20:12;;;;;;;;;10.00;8.00;;;;;16.17;44.80;99610.00;4858385;29;47212;-82
2022/04/22 01:22:38;;;;;;;;;7.33;6.33;;;;;16.14;44.98;99607.41;4874744;29;45479;-83
2022/04/22 01:25:07;;;;;;;;;10.33;7.67;;;;;16.28;44.71;99606.13;4879941;29;45470;-83
2022/04/22 01:27:33;;;;;;;;;7.00;7.00;;;;;16.15;45.36;99606.47;4866688;29;45366;-84
2022/04/22 01:30:06;;;;;;;;;8.33;8.33;;;;;16.22;45.11;99606.28;4882146;29;45148;-84
2022/04/22 01:32:31;;;;;;;;;8.00;8.00;;;;;16.09;45.08;99590.53;4865207;29;45092;-84
2022/04/22 01:34:57;;;;;;;;;9.00;7.00;;;;;16.08;45.13;99606.66;4880768;29;44778;-83
2022/04/22 01:37:24;;;;;;;;;12.00;8.67;;;;;16.10;45.08;99596.81;4864348;29;44841;-83
2022/04/22 01:39:50;;;;;;;;;7.00;7.00;;;;;15.99;45.74;99599.75;4855365;29;46337;-83
2022/04/22 01:42:18;;;;;;;;;9.33;8.00;;;;;15.94;46.04;99601.69;4840728;29;44929;-82
2022/04/22 01:44:44;;;;;;;;;9.33;9.33;;;;;15.90;45.70;99598.22;4839963;29;44772;-83
2022/04/22 01:47:09;;;;;;;;;10.33;9.00;;;;;15.89;45.92;99585.69;4836203;29;45522;-82
2022/04/22 01:49:35;;;;;;;;;11.67;8.00;;;;;15.80;45.99;99570.75;4838660;29;48025;-83
2022/04/22 01:52:00;;;;;;;;;10.33;9.33;;;;;15.88;45.61;99591.13;4838638;29;45655;-84
2022/04/22 01:54:26;;;;;;;;;12.67;11.33;;;;;15.86;45.93;99588.47;4838020;29;45615;-83
2022/04/22 01:56:51;;;;;;;;;7.00;7.00;;;;;15.82;45.92;99585.94;4837182;29;45381;-83
2022/04/22 01:59:18;;;;;;;;;8.00;8.00;;;;;15.89;46.57;99590.19;4839525;29;45556;-82
2022/04/22 02:01:43;;;;;;;;;6.33;6.33;;;;;15.76;46.97;99585.16;4838981;29;45380;-83
2022/04/22 02:04:09;;;;;;;;;7.00;7.00;;;;;15.75;47.01;99580.72;4823751;29;45892;-82
2022/04/22 02:06:34;;;;;;;;;10.00;7.33;;;;;15.60;46.67;99565.00;4838789;29;45477;-82
2022/04/22 02:09:00;;;;;;;;;5.33;5.33;;;;;15.65;46.30;99576.47;4823320;29;47840;-83
2022/04/22 02:11:25;;;;;;;;;8.00;8.00;;;;;15.74;46.12;99583.44;4837392;29;45375;-83
2022/04/22 02:13:51;;;;;;;;;7.00;7.00;;;;;15.70;46.30;99573.69;4821510;29;45353;-82
2022/04/22 02:16:16;;;;;;;;;6.33;5.67;;;;;15.66;46.26;99570.19;4838550;29;45953;-83
2022/04/22 02:18:42;;;;;;;;;10.00;8.33;;;;;15.63;46.41;99564.03;4838094;29;47509;-82
2022/04/22 02:21:10;;;;;;;;;10.33;10.33;;;;;15.69;46.39;99578.13;4840405;29;45589;-83
2022/04/22 02:29:41;;;;;;;;;8.33;6.33;;;;;15.53;46.90;99569.63;4840636;29;45220;-83
2022/04/22 02:32:07;;;;;;;;;10.00;9.67;;;;;15.52;47.08;99575.03;4841578;29;45351;-82
2022/04/22 02:34:32;;;;;;;;;11.00;10.00;;;;;15.44;47.31;99561.81;4839784;29;45559;-82
2022/04/22 02:36:58;;;;;;;;;5.67;4.00;;;;;15.40;47.67;99566.34;4839420;29;45494;-83
2022/04/22 02:39:23;;;;;;;;;10.00;10.00;;;;;15.29;48.06;99552.38;4840184;29;47898;-83
2022/04/22 02:47:16;;;;;;;;;9.33;9.33;;;;;15.24;47.64;99548.03;4858642;29;45488;-83
2022/04/22 02:49:44;;;;;;;;;9.00;9.00;;;;;15.23;47.73;99551.59;4858060;29;45348;-84
2022/04/22 02:52:10;;;;;;;;;7.00;7.00;;;;;15.21;48.07;99559.72;4858086;29;45341;-83
2022/04/22 02:54:42;;;;;;;;;10.00;9.33;;;;;15.27;48.22;99564.91;4857479;29;45339;-82
2022/04/22 02:57:09;;;;;;;;;10.67;9.67;;;;;15.15;48.76;99558.03;4841999;29;44864;-84
2022/04/22 02:59:39;;;;;;;;;10.67;10.67;;;;;15.17;47.82;99560.69;4858057;29;45554;-84
2022/04/22 03:02:05;;;;;;;;;12.00;12.00;;;;;15.09;47.68;99557.28;4858146;29;45354;-84
2022/04/22 03:04:34;;;;;;;;;11.67;9.67;;;;;15.04;48.32;99552.06;4857303;29;45459;-84
2022/04/22 03:06:59;;;;;;;;;11.00;10.33;;;;;14.97;48.37;99542.41;4858797;29;45399;-83
2022/04/22 03:09:24;;;;;;;;;11.67;11.00;;;;;14.91;48.16;99542.56;4856273;29;46947;-83
2022/04/22 03:15:14;;;;;;;;;11.00;11.00;;;;;15.00;47.92;99553.91;4856365;29;45503;-84
2022/04/22 03:17:39;;;;;;;;;10.00;10.00;;;;;14.99;48.35;99552.16;4855933;29;45473;-83
2022/04/22 03:20:05;;;;;;;;;7.33;7.33;;;;;14.88;48.04;99532.78;4856488;29;45379;-84
2022/04/22 03:22:30;;;;;;;;;10.33;8.67;;;;;14.93;48.35;99546.09;4857599;29;45464;-83
2022/04/22 03:24:56;;;;;;;;;10.00;9.00;;;;;14.93;48.18;99548.75;4843163;29;45047;-82
2022/04/22 03:27:21;;;;;;;;;8.33;8.33;;;;;14.89;48.96;99549.75;4859630;29;44829;-84
2022/04/22 03:29:46;;;;;;;;;9.00;9.00;;;;;14.87;48.27;99552.44;4876555;29;45507;-84
2022/04/22 03:32:12;;;;;;;;;8.00;7.00;;;;;14.87;48.30;99552.44;4877046;29;45440;-82
2022/04/22 03:34:38;;;;;;;;;7.00;6.33;;;;;14.89;48.93;99547.94;4877144;29;45430;-83
2022/04/22 03:37:03;;;;;;;;;7.33;7.33;;;;;14.82;48.82;99551.66;4876257;29;45347;-83
2022/04/22 03:39:32;;;;;;;;;7.00;6.33;;;;;14.87;49.00;99551.56;4864175;29;46974;-85
2022/04/22 03:41:58;;;;;;;;;12.00;10.00;;;;;14.73;48.84;99544.72;4861366;29;46036;-82
2022/04/22 03:44:26;;;;;;;;;9.33;7.33;;;;;14.75;50.28;99550.94;4862559;29;44843;-83
2022/04/22 03:46:51;;;;;;;;;11.33;11.00;;;;;14.62;49.92;99540.53;4861233;29;45655;-84
2022/04/22 03:49:17;;;;;;;;;9.00;9.00;;;;;14.54;49.82;99530.84;4860716;29;45939;-82
2022/04/22 03:51:44;;;;;;;;;9.00;9.00;;;;;14.55;49.72;99532.59;4861843;29;44859;-83
2022/04/22 03:54:09;;;;;;;;;10.33;9.33;;;;;14.48;49.77;99522.06;4840207;29;45504;-83
2022/04/22 03:59:19;;;;;;;;;12.67;11.67;;;;;14.48;49.43;99533.66;4857228;29;45456;-84
2022/04/22 04:01:44;;;;;;;;;12.33;11.67;;;;;14.48;50.03;99539.00;4838823;29;45447;-84
2022/04/22 04:04:10;;;;;;;;;12.00;12.00;;;;;14.44;50.55;99526.59;4853733;29;45325;-83
2022/04/22 04:06:37;;;;;;;;;12.67;12.67;;;;;14.48;49.67;99535.41;4854489;29;44853;-84
2022/04/22 04:17:14;;;;;;;;;22.33;22.33;;;;;14.29;50.15;99522.44;4856712;29;44764;-84
2022/04/22 04:25:10;;;;;;;;;49.67;39.00;;;;;14.35;51.26;99524.13;4855735;29;45417;-83
2022/04/22 04:27:37;;;;;;;;;45.25;37.50;;;;;14.33;50.62;99525.94;4840147;29;44816;-83
2022/04/22 04:30:05;;;;;;;;;45.75;39.75;;;;;14.27;50.56;99520.72;4856319;29;47146;-84
2022/04/22 04:32:31;;;;;;;;;53.50;44.00;;;;;14.28;50.14;99535.84;4855956;29;45436;-83
2022/04/22 04:34:56;;;;;;;;;57.25;45.25;;;;;14.26;50.49;99533.22;4842014;29;44799;-83
2022/04/22 04:37:23;;;;;;;;;54.00;42.75;;;;;14.31;51.06;99525.09;4858738;29;45384;-83
2022/04/22 04:39:48;;;;;;;;;59.75;49.25;;;;;14.16;51.38;99532.50;4862566;29;45736;-85
2022/04/22 04:42:14;;;;;;;;;44.00;36.75;;;;;14.11;52.33;99526.38;4862198;29;45469;-83
2022/04/22 04:44:40;;;;;;;;;59.50;49.50;;;;;14.05;51.29;99518.47;4875648;29;45387;-83
2022/04/22 04:47:06;;;;;;;;;60.00;48.00;;;;;14.10;50.93;99532.63;4860757;29;44913;-82
2022/04/22 04:56:15;;;;;;;;;52.00;40.00;;;;;13.99;52.05;99515.91;4874785;29;45535;-82
2022/04/22 04:58:42;;;;;;;;;53.75;41.00;;;;;14.01;52.35;99527.47;4875570;29;45430;-83
2022/04/22 05:01:07;;;;;;;;;49.00;41.00;;;;;13.97;52.19;99526.63;4857983;29;46738;-83
2022/04/22 05:03:32;;;;;;;;;43.33;39.00;;;;;13.93;53.30;99529.41;4873267;29;45404;-83
2022/04/22 05:05:58;;;;;;;;;49.67;39.67;;;;;13.83;52.44;99506.44;4874291;29;45577;-83
2022/04/22 05:08:25;;;;;;;;;41.33;37.33;;;;;13.92;51.99;99517.84;4859291;29;45441;-83
2022/04/22 05:10:51;;;;;;;;;46.00;39.00;;;;;13.82;53.45;99491.31;4873863;29;45497;-83
2022/04/22 05:13:17;;;;;;;;;42.33;35.67;;;;;13.87;53.14;99502.78;4875250;29;45552;-82
2022/04/22 05:15:43;;;;;;;;;40.67;36.00;;;;;13.90;52.65;99508.09;4874042;29;45373;-84
2022/04/22 05:18:09;;;;;;;;;26.00;23.67;;;;;13.86;53.82;99507.25;4873292;29;45328;-84
2022/04/22 05:20:34;;;;;;;;;32.00;30.67;;;;;13.78;54.50;99502.06;4871658;29;45650;-84
2022/04/22 05:23:00;;;;;;;;;36.33;35.00;;;;;13.76;53.94;99506.56;4873388;29;44863;-83
2022/04/22 05:25:26;;;;;;;;;34.33;32.67;;;;;13.77;53.55;99502.97;4857745;29;45498;-83
2022/04/22 05:27:51;;;;;;;;;31.33;30.67;;;;;13.76;55.11;99503.00;4858183;29;45654;-84
2022/04/22 05:33:03;;;;;;;;;37.00;33.67;;;;;13.79;53.68;99514.53;4873869;29;44958;-84
2022/04/22 05:35:29;;;;;;;;;36.00;34.25;;;;;13.88;53.91;99512.59;4857255;29;45459;-83
2022/04/22 05:37:57;;;;;;;;;37.75;33.50;;;;;13.80;54.67;99497.56;4858352;29;45417;-83
2022/04/22 05:40:25;;;;;;;;;31.67;28.00;;;;;13.89;53.97;99500.97;4874319;29;46847;-82
2022/04/22 05:42:52;;;;;;;;;31.00;26.67;;;;;13.92;54.17;99498.25;4858243;29;45349;-83
2022/04/22 05:45:19;;;;;;;;;30.33;30.33;;;;;14.07;53.80;99513.97;4874215;29;45399;-83
2022/04/22 05:47:45;;;;;;;;;39.67;32.67;;;;;14.12;53.88;99522.78;4859056;29;45705;-82
2022/04/22 05:50:13;;;;;;;;;35.00;33.33;;;;;14.23;53.27;99519.03;4874048;29;45160;-84
2022/04/22 05:52:39;;;;;;;;;33.00;32.00;;;;;14.24;53.01;99496.69;4858298;29;44810;-83
2022/04/22 05:56:00;;;;;;;;;28.00;28.00;;;;;14.51;53.52;99516.66;4872496;29;45400;-83
2022/04/22 05:58:25;;;;;;;;;28.33;25.00;;;;;14.43;52.82;99511.44;4872511;29;45234;-83
2022/04/22 06:00:51;;;;;;;;;28.33;28.33;;;;;14.50;52.62;99523.81;4858376;29;45345;-83
2022/04/22 06:03:16;;;;;;;;;19.33;17.00;;;;;14.52;52.65;99518.41;4856518;29;45682;-84
2022/04/22 06:05:42;;;;;;;;;25.33;23.00;;;;;14.64;53.04;99519.97;4872590;29;45405;-84
2022/04/22 06:11:29;;;;;;;;;23.00;21.33;;;;;14.70;52.75;99518.00;4873041;29;45045;-83
2022/04/22 06:13:55;;;;;;;;;23.67;23.33;;;;;14.76;52.47;99517.88;4858705;29;45762;-83
2022/04/22 06:16:20;;;;;;;;;20.33;20.33;;;;;14.85;52.38;99532.88;4876070;29;45402;-83
2022/04/22 06:18:47;;;;;;;;;21.00;21.00;;;;;14.87;52.00;99512.28;4877242;29;45322;-84
2022/04/22 06:21:59;;;;;;;;;24.67;21.33;;;;;15.19;52.19;99521.38;4878021;29;45660;-84
2022/04/22 06:24:25;;;;;;;;;19.00;18.67;;;;;14.97;51.37;99480.84;4882902;29;44897;-85
2022/04/22 06:26:50;;;;;;;;;16.00;14.67;;;;;15.08;51.00;99485.91;4862243;29;45404;-83
2022/04/22 06:29:16;;;;;;;;;19.00;17.67;;;;;15.24;51.14;99507.84;4861193;29;45384;-84
2022/04/22 06:31:42;;;;;;;;;19.67;19.67;;;;;15.26;50.83;99512.25;4861114;29;45356;-86
2022/04/22 06:34:09;;;;;;;;;18.00;16.00;;;;;15.35;50.95;99497.72;4861453;29;46012;-84
2022/04/22 06:36:35;;;;;;;;;23.00;21.33;;;;;15.32;50.56;99487.13;4876560;29;45567;-84
2022/04/22 06:39:01;;;;;;;;;21.33;20.00;;;;;15.53;50.33;99507.09;4859848;29;45929;-85
2022/04/22 06:46:57;;;;;;;;;21.67;20.00;;;;;15.50;50.20;99520.59;4876324;29;45483;-84
2022/04/22 06:49:30;;;;;;;;;20.67;19.67;;;;;15.49;50.62;99503.66;4858146;29;45612;-84
2022/04/22 06:51:56;;;;;;;;;20.33;20.00;;;;;15.56;50.19;99507.03;4858202;29;47299;-84
2022/04/22 06:54:23;;;;;;;;;24.00;21.33;;;;;15.61;50.05;99499.75;4858724;29;45351;-84
2022/04/22 07:00:10;;;;;;;;;19.67;17.67;;;;;15.82;49.92;99489.41;4876569;29;45441;-84
2022/04/22 07:02:36;;;;;;;;;20.00;18.33;;;;;15.91;49.83;99499.88;4861029;29;47189;-84
2022/04/22 07:05:03;;;;;;;;;21.67;21.67;;;;;15.95;49.58;99497.06;4879758;29;45375;-85
2022/04/22 07:07:29;;;;;;;;;26.33;24.00;;;;;15.93;49.99;99492.66;4862530;29;45376;-83
2022/04/22 07:09:56;;;;;;;;;19.67;18.33;;;;;16.03;49.61;99491.47;4870522;29;45379;-83
2022/04/22 07:12:26;;;;;;;;;22.67;21.67;;;;;16.12;49.64;99499.28;4861410;29;46841;-84
2022/04/22 07:15:03;;;;;;;;;17.00;15.00;;;;;16.07;49.38;99497.66;4847402;29;46344;-83
2022/04/22 07:17:38;;;;;;;;;19.33;19.00;;;;;16.06;49.39;99471.72;4857421;29;44823;-83
2022/04/22 07:20:09;;;;;;;;;16.00;16.00;;;;;16.12;49.61;99493.03;4847513;29;44859;-83
2022/04/22 07:22:40;;;;;;;;;18.67;16.67;;;;;16.19;49.22;99486.56;4856953;29;46820;-83
2022/04/22 07:25:08;;;;;;;;;19.00;18.67;;;;;16.08;48.76;99465.44;4874888;29;45390;-85
2022/04/22 07:27:39;;;;;;;;;17.00;15.00;;;;;16.32;49.01;99495.13;4844900;29;45367;-83
2022/04/22 07:30:09;;;;;;;;;20.00;16.67;;;;;16.38;49.07;99502.97;4864104;29;45515;-84
2022/04/22 07:32:56;;;;;;;;;20.67;19.67;;;;;16.37;48.59;99482.47;4874810;29;47240;-85
2022/04/22 07:35:23;;;;;;;;;18.67;18.00;;;;;16.40;48.97;99493.09;4865430;29;45469;-84
2022/04/22 07:37:51;;;;;;;;;17.67;16.33;;;;;16.40;48.62;99476.97;4852974;29;45375;-84
2022/04/22 07:40:19;;;;;;;;;19.33;18.33;;;;;16.43;48.59;99487.63;4862546;29;45223;-84
2022/04/22 07:48:56;;;;;;;;;20.00;20.00;;;;;16.85;47.53;99486.41;4879562;29;44828;-85
2022/04/22 07:51:25;;;;;;;;;18.00;18.00;;;;;16.94;46.85;99488.78;4863321;29;45430;-83
2022/04/22 07:53:55;;;;;;;;;16.00;15.00;;;;;16.84;46.18;99465.84;4862460;29;47941;-86
2022/04/22 07:56:27;;;;;;;;;16.00;15.33;;;;;16.76;45.98;99452.63;4863695;29;44810;-83
2022/04/22 07:58:56;;;;;;;;;14.00;13.00;;;;;16.95;46.67;99494.13;4884109;29;44773;-84
2022/04/22 08:01:21;;;;;;;;;19.33;16.33;;;;;16.72;46.45;99451.84;4891475;29;45383;-84
2022/04/22 08:03:58;;;;;;;;;18.33;14.00;;;;;17.05;46.58;99475.91;4878198;29;46018;-84
2022/04/22 08:06:24;;;;;;;;;16.00;15.33;;;;;16.83;46.04;99432.75;4859513;29;45514;-82
2022/04/22 08:08:50;;;;;;;;;16.67;14.67;;;;;17.13;46.13;99472.97;4859312;29;45501;-83
2022/04/22 08:11:20;;;;;;;;;16.00;16.00;;;;;17.14;45.48;99445.16;4859647;29;45454;-85
2022/04/22 08:13:46;;;;;;;;;16.33;14.33;;;;;17.38;46.01;99489.13;4866274;29;46893;-85
2022/04/22 08:16:13;;;;;;;;;12.67;12.67;;;;;17.60;45.68;99494.66;4858901;29;45553;-86
2022/04/22 08:18:41;;;;;;;;;19.00;18.33;;;;;17.72;44.74;99487.97;4862519;29;45508;-84
2022/04/22 08:21:08;;;;;;;;;16.00;14.33;;;;;17.54;45.02;99447.34;4887802;29;44897;-85
2022/04/22 08:23:35;;;;;;;;;12.67;12.67;;;;;17.77;44.96;99470.75;4891332;29;45648;-86
2022/04/22 08:27:06;;;;;;;;;15.67;14.33;;;;;18.12;44.45;99471.28;4888178;29;45379;-83
2022/04/22 08:29:44;;;;;;;;;17.00;15.67;;;;;18.30;43.46;99482.28;4880576;29;45165;-84
2022/04/22 08:32:09;;;;;;;;;16.00;14.00;;;;;18.21;43.88;99479.94;4864659;29;45380;-85
2022/04/22 08:34:38;;;;;;;;;11.33;10.67;;;;;18.29;42.49;99469.78;4866694;29;47243;-86
2022/04/22 08:37:28;;;;;;;;;12.00;12.00;;;;;18.12;42.28;99448.91;4859578;29;45386;-86
2022/04/22 08:39:59;;;;;;;;;15.67;14.33;;;;;18.15;42.45;99468.47;4862467;29;45925;-83
2022/04/22 08:43:00;;;;;;;;;19.00;19.00;;;;;18.23;42.56;99470.88;4845012;29;45497;-84
2022/04/22 08:51:36;;;;;;;;;15.00;15.00;;;;;17.98;43.08;99425.19;4834234;29;44898;-85
2022/04/22 08:54:04;;;;;;;;;12.33;12.33;;;;;18.29;43.03;99462.56;4812871;29;44922;-84
2022/04/22 08:56:33;;;;;;;;;14.33;14.33;;;;;18.30;43.54;99456.25;4813071;29;46673;-85
2022/04/22 08:59:00;;;;;;;;;18.67;17.00;;;;;18.14;42.78;99425.50;4818414;29;45430;-86
2022/04/22 09:01:42;;;;;;;;;20.33;17.33;;;;;18.46;41.79;99456.56;4834229;29;45548;-85
2022/04/22 09:04:10;;;;;;;;;16.67;15.67;;;;;18.27;41.84;99412.44;4826726;29;44992;-85
2022/04/22 09:06:40;;;;;;;;;11.33;10.67;;;;;18.55;41.25;99464.25;4827499;29;46905;-84
2022/04/22 09:09:09;;;;;;;;;9.00;7.33;;;;;18.33;38.78;99466.91;4829448;29;44822;-85
2022/04/22 09:11:38;;;;;;;;;12.67;11.00;;;;;18.26;39.76;99437.59;4814446;29;45478;-84
2022/04/22 09:14:09;;;;;;;;;9.67;9.00;;;;;18.25;39.95;99452.84;4801143;29;45114;-87
2022/04/22 09:23:36;;;;;;;;;12.50;11.50;;;;;18.47;40.21;99393.69;4761981;29;45474;-83
2022/04/22 09:26:06;;;;;;;;;10.00;9.67;;;;;18.62;39.42;99451.41;4746925;29;45855;-81
2022/04/22 09:28:33;;;;;;;;;12.33;10.33;;;;;18.56;39.53;99444.50;4761009;29;45701;-81
2022/04/22 09:31:03;;;;;;;;;11.00;11.00;;;;;18.64;39.95;99443.28;4759978;29;45513;-81
2022/04/22 09:33:45;;;;;;;;;9.67;8.33;;;;;18.82;39.47;99437.19;4748880;29;44747;-83
2022/04/22 09:45:14;;;;;;;;;6.67;6.67;;;;;18.83;38.97;99436.25;4776417;29;45610;-82
2022/04/22 09:47:47;;;;;;;;;7.67;7.67;;;;;18.71;38.89;99418.75;4773762;29;45630;-84
2022/04/22 09:50:41;;;;;;;;;8.00;8.00;;;;;19.01;38.51;99449.91;4772792;29;45723;-82
2022/04/22 09:53:12;;;;;;;;;8.00;8.00;;;;;18.88;38.42;99428.84;4766081;29;45334;-83
2022/04/22 09:56:31;;;;;;;;;10.00;10.00;;;;;19.17;39.12;99437.56;4790177;29;45683;-82
2022/04/22 09:59:34;;;;;;;;;;;;;;;;;;;;;
2022/04/22 10:02:31;;;;;;;;;9.67;7.67;;;;;19.23;37.12;99431.00;4854173;29;74275;-84
2022/04/22 10:05:09;;;;;;;;;6.00;6.00;;;;;19.14;37.24;99416.13;4838590;29;44911;-83
2022/04/22 10:07:50;;;;;;;;;5.33;5.33;;;;;19.07;36.78;99390.41;4849070;29;45671;-83
2022/04/22 10:10:23;;;;;;;;;7.67;6.33;;;;;18.96;36.56;99370.13;4848118;29;45642;-83
2022/04/22 10:16:14;;;;;;;;;7.00;7.00;;;;;19.10;38.06;99393.81;4818667;29;45580;-83
2022/04/22 10:22:11;;;;;;;;;7.33;7.33;;;;;19.23;36.43;99388.78;4838642;29;45604;-83
2022/04/22 10:24:54;;;;;;;;;5.00;5.00;;;;;19.32;36.68;99391.06;4849519;29;45286;-84
2022/04/22 10:27:27;;;;;;;;;6.33;6.33;;;;;19.22;37.31;99378.94;4831688;29;44949;-83
2022/04/22 10:29:57;;;;;;;;;7.33;7.33;;;;;19.51;35.95;99401.94;4827392;29;45477;-83
2022/04/22 10:32:25;;;;;;;;;5.00;3.67;;;;;19.32;35.84;99369.50;4800428;29;44844;-84
2022/04/22 10:35:07;;;;;;;;;6.00;6.00;;;;;19.53;36.20;99410.84;4789257;29;48305;-84
2022/04/22 10:37:37;;;;;;;;;6.00;6.00;;;;;19.35;35.61;99380.16;4833814;29;44942;-83
2022/04/22 10:40:16;;;;;;;;;5.00;5.00;;;;;19.50;35.41;99391.22;4817500;29;45401;-83
2022/04/22 10:42:43;;;;;;;;;5.33;5.33;;;;;19.52;35.53;99397.41;4809773;29;45566;-83
2022/04/22 10:47:55;;;;;;;;;7.67;6.33;;;;;19.35;35.09;99409.81;4820828;29;45558;-82
2022/04/22 10:50:37;;;;;;;;;6.67;6.67;;;;;19.32;35.42;99388.38;4828632;29;45486;-83
2022/04/22 10:53:09;;;;;;;;;5.33;5.33;;;;;19.24;35.76;99395.06;4838277;29;45515;-82
2022/04/22 10:55:41;;;;;;;;;8.00;7.67;;;;;19.30;36.23;99384.00;4864406;29;45475;-82
2022/04/22 10:58:13;;;;;;;;;5.67;5.67;;;;;19.39;35.96;99395.25;4857565;29;45291;-84
2022/04/22 11:00:46;;;;;;;;;7.00;7.00;;;;;19.40;35.72;99388.03;4847774;29;45587;-82
2022/04/22 11:04:03;;;;;;;;;;;;;;;;;;;;;
2022/04/22 11:13:40;;;;;;;;;7.00;7.00;;;;;19.80;35.40;99363.84;4805259;29;45536;-81
2022/04/22 11:16:49;;;;;;;;;3.67;3.67;;;;;19.71;35.77;99366.03;4806895;29;45751;-83
2022/04/22 11:19:36;;;;;;;;;6.33;6.33;;;;;19.86;34.89;99368.97;4774123;29;45524;-83
2022/04/22 11:32:14;;;;;;;;;5.33;5.33;;;;;19.58;35.05;99335.97;4714239;30;45739;-85
2022/04/22 11:35:24;;;;;;;;;6.00;6.00;;;;;19.89;35.42;99363.41;4699100;30;45877;-85
2022/04/22 11:41:40;;;;;;;;;5.67;5.67;;;;;19.69;34.63;99343.59;4631856;30;45461;-85
2022/04/22 11:44:19;;;;;;;;;6.67;6.67;;;;;19.68;34.37;99333.75;4644454;30;46829;-84
2022/04/22 11:50:04;;;;;;;;;7.00;6.33;;;;;19.74;35.04;99347.00;4658097;30;45599;-83
2022/04/22 12:11:02;;;;;;;;;5.67;5.67;;;;;20.12;35.34;99308.38;5057875;23;46280;-83
2022/04/22 12:13:59;;;;;;;;;6.00;6.00;;;;;20.39;34.14;99344.81;4878579;29;45486;-83
2022/04/22 12:16:33;;;;;;;;;6.00;6.00;;;;;20.05;34.31;99294.28;4859960;29;45437;-84
2022/04/22 12:36:32;;;;;;;;;4.33;4.33;;;;;20.23;34.20;99318.63;4816982;29;45765;-84
2022/04/22 14:56:06;;;;;;;;;6.00;6.00;;;;;37.93;14.07;99228.97;4893918;29;45418;-83
2022/04/22 14:59:14;;;;;;;;;6.00;6.00;;;;;37.45;14.48;99217.38;4915016;28;45525;-84
2022/04/22 15:30:24;;;;;;;;;4.00;4.00;;;;;27.34;22.80;99240.09;4836233;29;45549;-83
2022/04/22 15:36:49;;;;;;;;;5.00;5.00;;;;;25.72;24.24;99199.66;4779475;29;44788;-82
2022/04/22 15:39:21;;;;;;;;;5.67;5.67;;;;;25.45;24.72;99243.38;4776497;29;45407;-85
2022/04/22 15:42:30;;;;;;;;;6.33;6.33;;;;;24.65;25.45;99205.41;4781912;29;45090;-83
2022/04/22 15:45:23;;;;;;;;;6.00;5.00;;;;;24.34;25.52;99212.91;4780088;29;48048;-83
2022/04/22 15:47:55;;;;;;;;;5.67;5.00;;;;;24.15;26.11;99223.25;4811989;29;45943;-85
2022/04/22 15:55:31;;;;;;;;;;;;;;;;;;;;;
2022/04/22 16:06:52;;;;;;;;;6.67;5.00;;;;;22.84;27.75;99211.63;5076456;23;46797;-82
2022/04/22 16:10:01;;;;;;;;;5.00;4.00;;;;;23.01;27.74;99235.00;4912238;28;46226;-87
2022/04/22 16:16:06;;;;;;;;;6.33;6.33;;;;;22.87;28.10;99217.72;4908514;29;45459;-82
2022/04/22 16:22:53;;;;;;;;;3.67;3.67;;;;;22.69;28.83;99216.13;4912064;28;45355;-84
2022/04/22 16:25:28;;;;;;;;;5.00;5.00;;;;;22.50;28.63;99221.78;4849315;29;45436;-82
2022/04/22 16:31:05;;;;;;;;;6.67;6.67;;;;;22.44;28.77;99212.19;4826650;29;45455;-82
2022/04/22 16:33:30;;;;;;;;;5.00;4.00;;;;;22.26;28.67;99205.13;4826556;29;46357;-83
2022/04/22 16:35:58;;;;;;;;;4.00;3.00;;;;;22.27;28.76;99182.50;4868242;28;44917;-82
2022/04/22 16:38:35;;;;;;;;;4.33;4.33;;;;;22.51;29.00;99223.53;4907485;28;44863;-83
2022/04/22 16:41:01;;;;;;;;;4.00;4.00;;;;;22.11;29.69;99196.03;4893914;29;45398;-84
2022/04/22 16:43:27;;;;;;;;;4.00;4.00;;;;;22.06;29.46;99204.44;4911350;29;46490;-83
2022/04/22 16:45:57;;;;;;;;;5.00;5.00;;;;;22.05;29.79;99191.84;4908625;29;44834;-82
2022/04/22 16:48:26;;;;;;;;;6.00;6.00;;;;;22.07;29.64;99214.28;4910062;29;44778;-83
2022/04/22 16:50:56;;;;;;;;;6.00;5.00;;;;;22.07;29.77;99221.56;4896440;28;45374;-84
2022/04/22 16:53:22;;;;;;;;;4.00;4.00;;;;;21.93;30.09;99220.50;4890249;29;45775;-83
2022/04/22 16:55:48;;;;;;;;;5.33;4.33;;;;;21.98;29.97;99236.50;4890375;29;45410;-82
2022/04/22 16:58:19;;;;;;;;;5.00;5.00;;;;;21.97;29.90;99202.25;4890647;29;45929;-83
2022/04/22 17:00:47;;;;;;;;;4.00;4.00;;;;;22.04;29.89;99230.72;4892515;29;45338;-83
2022/04/22 17:03:18;;;;;;;;;4.67;4.67;;;;;22.06;29.86;99227.94;4890536;29;47047;-83
2022/04/22 17:05:44;;;;;;;;;4.33;3.33;;;;;21.97;30.12;99226.63;4942650;28;46015;-83
2022/04/22 17:08:13;;;;;;;;;4.67;4.67;;;;;22.05;30.19;99221.63;4937742;28;45576;-85
2022/04/22 17:10:42;;;;;;;;;4.00;4.00;;;;;22.20;29.71;99217.19;4934233;28;44870;-83
2022/04/22 17:13:07;;;;;;;;;5.00;4.00;;;;;22.08;29.67;99215.19;4949086;28;45372;-84
2022/04/22 17:23:55;;;;;;;;;3.67;3.67;;;;;21.98;30.39;99209.44;4925278;28;45437;-83
2022/04/22 17:26:21;;;;;;;;;3.33;3.33;;;;;21.98;30.14;99214.84;4925579;28;44857;-82
2022/04/22 17:28:49;;;;;;;;;4.00;4.00;;;;;21.96;30.35;99216.75;4915068;28;45448;-83
2022/04/22 17:32:09;;;;;;;;;3.00;3.00;;;;;22.03;30.39;99215.44;4910136;29;45454;-84
2022/04/22 17:34:38;;;;;;;;;4.00;4.00;;;;;21.73;30.77;99215.34;4906512;23;48175;-82
2022/04/22 17:37:06;;;;;;;;;5.00;4.00;;;;;21.64;30.70;99219.44;4871221;29;45504;-83
2022/04/22 17:39:34;;;;;;;;;5.00;5.00;;;;;21.68;30.52;99217.47;4873415;29;45526;-82
2022/04/22 17:42:02;;;;;;;;;3.00;3.00;;;;;21.57;30.89;99215.31;4873865;29;45529;-82
2022/04/22 17:44:39;;;;;;;;;5.00;5.00;;;;;21.49;30.93;99221.19;4873485;29;46088;-82
2022/04/22 17:47:05;;;;;;;;;6.33;3.67;;;;;21.29;31.03;99214.13;4858186;29;45745;-83
2022/04/22 17:49:30;;;;;;;;;6.00;6.00;;;;;21.25;31.03;99223.38;4875264;29;45532;-82